Regionale Übersicht

METAR und TAF

Montag, 14. Juni 2021 - 05:05 Uhr

Beobachtete horizontale meteorologische Sicht an ausgewählten Flughäfen. Die vollständigen METARs und Flugwettervorhersagen (TAFs) sind verfügbar, wenn Sie auf das entsprechende Symbol mit der ICAO-Flughafenkennung klicken.

  • Luxemburg (ELLX)

    Taf: TAF ELLX 132300Z 1400/1506 06008KT CAVOK=

    Metar: METAR ELLX 140250Z 05007KT CAVOK 13/07 Q1023 NOSIG=

  • Spangdahlem (ETAD)

    Taf: nil

    Metar: METAR ETAD 140256Z AUTO 05003KT 9999 CLR 11/07 A3022 RMK AO2 SLP217 T01120065 57012 $=

  • Metz/Nancy (LFJL)

    Taf: TAF LFJL 132300Z 1400/1424 07008KT CAVOK=

    Metar: METAR LFJL 140230Z AUTO 05003KT CAVOK 10/06 Q1022 NOSIG=

  • Saarbrücken/Intl (EDDR)

    Taf: TAF EDDR 132300Z 1400/1424 06006KT CAVOK BECMG 1417/1419 VRB03KT=

    Metar: METAR EDDR 140250Z 06007KT CAVOK 12/07 Q1023=

  • Hahn (EDFH)

    Taf: TAF EDFH 132300Z 1400/1424 09004KT CAVOK TEMPO 1407/1413 15005KT=

    Metar: METAR EDFH 140250Z NIL=

  • Ramstein (ETAR)

    Taf: TAF ETAR 140200Z 1402/1508 VRB06KT 9999 SKC QNH3015INS BECMG 1407/1408 08009KT 9999 SKC QNH3007INS BECMG 1419/1420 VRB06KT 9999 SKC QNH3005INS TX26/1414Z TN08/1404Z=

    Metar: METAR ETAR 140256Z AUTO 00000KT 9999 CLR 09/09 A3023 RMK AO2 SLP237 T00910091 57008 FZRANO $=

  • Nancy/Ochey (LFSO)

    Taf: TAF LFSO 140200Z NIL=

    Metar: METAR LFSO 140230Z AUTO VRB03KT CAVOK 15/06 Q1022=

  • Liège Bierset (EBLG)

    Taf: TAF EBLG 132312Z 1400/1506 14005KT CAVOK=

    Metar: METAR EBLG 140250Z 15005KT CAVOK 15/08 Q1023 NOSIG=

  • Saint-Dizier (LFSI)

    Taf: TAF LFSI 140200Z 1403/1503 VRB02KT CAVOK=

    Metar: METAR LFSI 140230Z AUTO 00000KT CAVOK 11/10 Q1021=

  • Maastricht/Zuid Limburg (EHBK)

    Taf: TAF EHBK 132301Z 1400/1506 12005KT CAVOK=

    Metar: METAR EHBK 140255Z AUTO 17002KT 9999 NCD 13/08 Q1022=

  • Köln/Köln-Bonn (EDDK)

    Taf: TAF EDDK 132300Z 1400/1506 12005KT CAVOK TEMPO 1400/1506 VRB03KT=

    Metar: METAR EDDK 140250Z VRB02KT CAVOK 13/08 Q1023 NOSIG=

  • Charleroi (EBCI)

    Taf: TAF EBCI 132312Z 1400/1506 11004KT CAVOK=

    Metar: METAR EBCI 140250Z 16003KT CAVOK 14/09 Q1023 NOSIG=

  • Wiesbaden (ETOU)

    Taf: TAF AMD ETOU 131342Z 1313/1419 12009KT 9999 SKC QNH3012INS TX26/1315Z TN14/1404Z LAST NO AMDS AFT 1316=

    Metar: METAR ETOU 140256Z AUTO 08005KT 9999 CLR 14/07 A3024 RMK AO2 SLP239 T01430073 55004 $=

  • Karlsruhe/Baden-Baden (EDSB)

    Taf: TAF EDSB 132300Z 1400/1424 02007KT CAVOK=

    Metar: METAR EDSB 140250Z AUTO 03008KT 9999 // NCD 12/07 Q1022=

  • Chalons/Vatry (LFOK)

    Taf: TAF LFOK 132300Z 1400/1424 06007KT CAVOK=

    Metar: METAR LFOK 140230Z AUTO 02006KT CAVOK 12/09 Q1022 NOSIG=

  • Frankfurt/Main (EDDF)

    Taf: TAF EDDF 132300Z 1400/1506 03004KT CAVOK BECMG 1406/1408 09005KT BECMG 1418/1420 03004KT=

    Metar: METAR EDDF 140250Z 01006KT CAVOK 14/09 Q1024 NOSIG=

  • Brüssel (EBBR)

    Taf: TAF EBBR 132312Z 1400/1506 15006KT CAVOK=

    Metar: METAR EBBR 140250Z 13005KT CAVOK 12/08 Q1022 NOSIG=

  • Düsseldorf (EDDL)

    Taf: TAF EDDL 132300Z 1400/1506 08003KT CAVOK BECMG 1403/1406 15007KT BECMG 1411/1414 25005KT BECMG 1415/1418 36005KT=

    Metar: METAR EDDL 140250Z VRB02KT CAVOK 10/08 Q1023 NOSIG=

  • Luxeuil (LFSX)

    Taf: TAF LFSX 140200Z NIL=

    Metar: METAR LFSX 140230Z AUTO VRB01KT CAVOK 10/10 Q1021=

  • Eindhoven (EHEH)

    Taf: TAF EHEH 132305Z 1400/1506 14003KT CAVOK BECMG 1415/1418 31007KT PROB30 1501/1504 4000 BR=

    Metar: METAR EHEH 140255Z AUTO 13004KT 150V260 9999 NCD 11/09 Q1022 BLU=

  • Niederrhein (EDLV)

    Taf: TAF EDLV 132300Z NIL=

    Metar: METAR EDLV 140250Z 11003KT CAVOK 13/09 Q1023=

  • Dortmund/Wickede (EDLW)

    Taf: TAF EDLW 132300Z NIL=

    Metar: METAR EDLW 140250Z AUTO 13004KT 9999 // NCD 11/08 Q1023=

  • Stuttgart/Echterdingen (EDDS)

    Taf: TAF EDDS 132300Z 1400/1424 VRB03KT CAVOK BECMG 1407/1409 06006KT BECMG 1416/1418 VRB03KT=

    Metar: METAR EDDS 140250Z VRB02KT CAVOK 11/07 Q1024=

  • Basel-Mühlhausen (LFSB)

    Taf: TAF LFSB 132300Z 1400/1424 27004KT CAVOK BECMG 1409/1412 35008KT=

    Metar: METAR LFSB 140230Z AUTO 25001KT CAVOK 12/08 Q1022 NOSIG=

  • Lille (LFQQ)

    Taf: TAF LFQQ 132300Z 1400/1506 10003KT CAVOK TEMPO 1417/1419 35011KT=

    Metar: METAR LFQQ 140230Z AUTO VRB02KT CAVOK 14/10 Q1022 NOSIG=

  • Paris/Charles de Gaulle (LFPG)

    Taf: TAF LFPG 132300Z 1400/1506 04005KT CAVOK TX29/1415Z TN15/1403Z=

    Metar: METAR LFPG 140230Z 02006KT CAVOK 15/10 Q1021 NOSIG=

  • Paderborn/Lippstadt (EDLP)

    Taf: TAF EDLP 132300Z 1400/1424 16005KT CAVOK BECMG 1408/1411 23005KT BECMG 1412/1415 29005KT BECMG 1418/1421 VRB03KT=

    Metar: METAR EDLP 140250Z 16007KT CAVOK 12/07 Q1024=

  • Paris/Le Bourget (LFPB)

    Taf: TAF LFPB 132300Z 1400/1424 04005KT CAVOK=

    Metar: METAR LFPB 140230Z AUTO 36004KT CAVOK 14/11 Q1021 NOSIG=

  • Rotterdam (EHRD)

    Taf: TAF EHRD 132305Z 1400/1506 10003KT CAVOK BECMG 1409/1412 27010KT BECMG 1418/1421 04005KT=

    Metar: METAR EHRD 140255Z AUTO 16006KT 9999 NCD 14/12 Q1022 NOSIG=

  • Zürich/Kloten (LSZH)

    Taf: TAF LSZH 140225Z 1403/1509 31005KT CAVOK TX28/1415Z TN10/1404Z TN11/1504Z=

    Metar: METAR LSZH 140250Z AUTO 33005KT CAVOK 14/07 Q1022 NOSIG=

  • Oostende/Intl (EBOS)

    Taf: TAF EBOS 132312Z 1400/1506 15006KT CAVOK BECMG 1503/1505 02010KT=

    Metar: METAR EBOS 140250Z 13002KT CAVOK 12/09 Q1022 NOSIG=

  • Paris/Orly (LFPO)

    Taf: TAF LFPO 132300Z 1400/1506 05005KT CAVOK=

    Metar: METAR LFPO 140230Z 03002KT CAVOK 14/10 Q1021 NOSIG=

  • Beauvais (LFOB)

    Taf: TAF LFOB 132300Z 1400/1424 05005KT CAVOK=

    Metar: METAR LFOB 140230Z AUTO 34003KT CAVOK 10/09 Q1022 NOSIG=

  • Münster/Intl (EDDG)

    Taf: TAF EDDG 132300Z 1400/1424 VRB02KT CAVOK BECMG 1406/1409 19006KT BECMG 1411/1414 25007KT BECMG 1418/1421 34003KT=

    Metar: METAR EDDG 140250Z VRB02KT CAVOK 10/09 Q1023 NOSIG=

  • Illesheim (ETIK)

    Taf: nil

    Metar: METAR ETIK 140256Z AUTO 06003KT 9999 CLR 08/06 A3028 RMK AO2 SLP252 T00750055 56007 $=

  • Duebendorf (LSMD)

    Taf: TAF LSMD 131625Z 1317/1423 06006KT CAVOK=

    Metar: METAR LSMD 140250Z AUTO VRB01KT 9999NDV NCD 14/08 Q1022 RMK=

  • Villacoublay (LFPV)

    Taf: TAF LFPV 140200Z 1403/1503 05010KT CAVOK TX28/1415Z TN13/1403Z=

    Metar: METAR LFPV 140230Z AUTO 04004KT CAVOK 15/10 Q1021 NOSIG=

  • Payerne (LSMP)

    Taf: TAF LSMP 131625Z 1317/1423 05010KT CAVOK BECMG 1322/1324 VRB02KT BECMG 1414/1416 9999 SCT050=

    Metar: METAR LSMP 140250Z AUTO VRB01KT 9999NDV NCD 14/09 Q1022 RMK=

  • Amsterdam/Schipol (EHAM)

    Taf: TAF EHAM 132305Z 1400/1506 VRB03KT CAVOK BECMG 1403/1406 18007KT BECMG 1409/1412 24010KT BECMG 1415/1418 33006KT BECMG 1421/1424 04006KT=

    Metar: METAR EHAM 140255Z 17002KT CAVOK 13/11 Q1022 NOSIG=

  • Emmen (LSME)

    Taf: TAF LSME 131625Z 1317/1423 03004KT CAVOK=

    Metar: METAR LSME 140250Z AUTO VRB01KT 9999NDV FEW240 12/09 Q1022 RMK=

  • Friedrichshafen (EDNY)

    Taf: TAF EDNY 132300Z 1400/1424 02008KT CAVOK BECMG 1422/1424 VRB03KT=

    Metar: METAR EDNY 140250Z AUTO 05005KT 9999 // NCD 13/07 Q1022=

  • Alpnach (LSMA)

    Taf: TAF LSMA 131625Z 1317/1423 04008KT CAVOK=

    Metar: METAR LSMA 140250Z AUTO 19003KT 9999NDV NCD 13/11 Q1022 RMK=

  • Meiringen (LSMM)

    Taf: TAF LSMM 131625Z 1317/1423 06008KT CAVOK TEMPO 1412/1417 28010G20KT 9999 FEW060=

    Metar: METAR LSMM 140250Z AUTO 10008KT 9999NDV NCD 13/12 Q1022 RMK=

  • Nürnberg (EDDN)

    Taf: TAF EDDN 132300Z 1400/1424 10005KT CAVOK=

    Metar: METAR EDDN 140250Z VRB01KT CAVOK 09/08 Q1025=

  • Rouen (LFOP)

    Taf: TAF LFOP 132300Z NIL=

    Metar: METAR LFOP 140230Z AUTO 10006KT CAVOK 12/10 Q1021=

  • Evreux (LFOE)

    Taf: TAF LFOE 140200Z 1403/1503 VRB02KT CAVOK BECMG 1415/1417 34010KT BECMG 1500/1502 VRB02KT=

    Metar: METAR LFOE 140230Z AUTO 03003KT CAVOK 14/11 Q1021 NOSIG=

  • Erfurt/Bindersleben (EDDE)

    Taf: TAF EDDE 132300Z 1400/1424 21005KT CAVOK BECMG 1406/1408 27004KT=

    Metar: METAR EDDE 140250Z 22008KT CAVOK 09/07 Q1025=